Time;durP1;ratioP1;P1;durP2;ratioP2;P2;SDS_P1;SDS_P2;PMS_P1;PMS_P2;Temp;Humidity;BMP_temperature;BMP_pressure;BME280_temperature;BME280_humidity;BME280_pressure;Samples;Min_cycle;Max_cycle;Signal;HPM_P1;HPM_P2
2022/08/02 00:02:19;;;;;;;10.27;5.32;;;11.80;99.90;;;;;;5051198;28;20040;-69
2022/08/02 00:04:45;;;;;;;8.40;4.93;;;11.80;99.90;;;;;;5034589;28;20516;-69
2022/08/02 00:07:11;;;;;;;8.98;4.38;;;11.80;99.90;;;;;;5050467;28;20490;-69
2022/08/02 00:09:37;;;;;;;11.05;5.20;;;11.80;99.90;;;;;;5033233;28;20045;-70
2022/08/02 00:12:03;;;;;;;9.20;4.78;;;11.80;99.90;;;;;;5036091;28;20036;-70
2022/08/02 00:14:29;;;;;;;8.98;4.68;;;11.70;99.90;;;;;;5032302;28;20558;-69
2022/08/02 00:16:55;;;;;;;13.93;6.00;;;11.70;99.90;;;;;;5035358;28;20368;-69
2022/08/02 00:19:21;;;;;;;14.32;6.30;;;11.80;99.90;;;;;;5035214;28;20033;-69
2022/08/02 00:21:46;;;;;;;11.73;5.78;;;11.70;99.90;;;;;;5051044;28;20059;-70
2022/08/02 00:24:12;;;;;;;14.68;6.28;;;11.70;99.90;;;;;;5033856;28;20048;-69
2022/08/02 00:26:38;;;;;;;13.98;6.45;;;11.70;99.90;;;;;;5033165;28;20146;-70
2022/08/02 00:29:05;;;;;;;11.10;6.25;;;11.70;99.90;;;;;;5032442;28;20045;-69
2022/08/02 00:31:30;;;;;;;10.18;5.75;;;11.70;99.90;;;;;;5050883;28;20146;-69
2022/08/02 00:33:56;;;;;;;13.65;6.28;;;11.70;99.90;;;;;;5033959;28;20124;-69
2022/08/02 00:36:22;;;;;;;11.18;6.25;;;11.70;99.90;;;;;;5015821;28;20048;-70
2022/08/02 00:38:49;;;;;;;9.98;5.60;;;11.70;99.90;;;;;;5034187;28;20041;-70
2022/08/02 00:41:18;;;;;;;11.13;5.65;;;11.80;99.90;;;;;;5017073;28;20041;-70
2022/08/02 00:43:46;;;;;;;13.50;6.28;;;11.80;99.90;;;;;;5049042;28;20041;-70
2022/08/02 00:46:12;;;;;;;9.65;5.82;;;11.80;99.90;;;;;;5057271;28;20056;-70
2022/08/02 00:48:37;;;;;;;11.55;5.50;;;11.80;99.90;;;;;;5043177;28;20071;-69
2022/08/02 00:51:03;;;;;;;7.95;5.13;;;11.80;99.90;;;;;;5042908;28;20072;-69
2022/08/02 00:53:29;;;;;;;11.93;5.25;;;11.90;99.90;;;;;;5059865;28;20040;-70
2022/08/02 00:55:55;;;;;;;11.65;4.95;;;11.90;99.90;;;;;;5043516;28;20406;-70
2022/08/02 00:58:21;;;;;;;6.78;4.82;;;11.90;99.90;;;;;;5043688;28;20045;-70
2022/08/02 01:00:47;;;;;;;10.02;4.78;;;11.90;99.90;;;;;;5043144;28;20067;-70
2022/08/02 01:03:13;;;;;;;11.32;4.88;;;11.90;99.90;;;;;;5037733;28;20064;-70
2022/08/02 01:05:39;;;;;;;8.48;5.45;;;12.00;99.90;;;;;;5037557;28;20045;-70
2022/08/02 01:08:05;;;;;;;11.13;4.70;;;12.00;99.90;;;;;;5042267;28;20033;-70
2022/08/02 01:10:30;;;;;;;8.80;4.65;;;12.00;99.90;;;;;;5024077;28;20033;-69
2022/08/02 01:12:56;;;;;;;9.00;4.82;;;12.00;99.90;;;;;;5038620;28;20489;-69
2022/08/02 01:15:22;;;;;;;10.65;4.75;;;11.90;99.90;;;;;;5021955;28;20048;-70
2022/08/02 01:18:06;;;;;;;8.15;4.90;;;11.90;99.90;;;;;;5038280;28;20037;-69
2022/08/02 01:20:42;;;;;;;10.90;5.18;;;11.90;99.90;;;;;;5055006;28;20498;-69
2022/08/02 01:23:33;;;;;;;8.45;5.03;;;11.90;99.90;;;;;;5044789;28;20026;-69
2022/08/02 01:26:23;;;;;;;9.05;5.07;;;11.90;99.90;;;;;;5034207;28;20041;-70
2022/08/02 01:29:05;;;;;;;8.30;4.72;;;11.80;99.90;;;;;;5037766;28;20029;-70
2022/08/02 01:31:48;;;;;;;11.27;5.13;;;11.80;99.90;;;;;;5033919;28;20045;-70
2022/08/02 01:34:25;;;;;;;12.15;5.28;;;11.80;99.90;;;;;;5023253;28;20033;-69
2022/08/02 01:37:23;;;;;;;9.52;5.35;;;11.80;99.90;;;;;;5023264;28;20036;-69
2022/08/02 01:40:12;;;;;;;10.35;5.05;;;11.80;99.90;;;;;;5025499;28;20045;-69
2022/08/02 01:42:42;;;;;;;9.23;4.82;;;11.80;99.90;;;;;;5040727;28;20058;-70
2022/08/02 01:45:11;;;;;;;10.52;5.63;;;11.80;99.90;;;;;;5021727;28;20107;-69
2022/08/02 01:47:39;;;;;;;10.82;5.82;;;11.80;99.90;;;;;;5028808;28;20080;-70
2022/08/02 01:50:06;;;;;;;12.00;5.28;;;11.80;99.90;;;;;;5055180;28;20040;-69
2022/08/02 01:52:36;;;;;;;14.75;5.65;;;11.80;99.90;;;;;;5044170;28;20052;-69
2022/08/02 01:55:06;;;;;;;9.82;6.47;;;11.90;99.90;;;;;;5038600;28;20116;-70
2022/08/02 01:57:48;;;;;;;8.68;5.35;;;11.80;99.90;;;;;;5046096;28;20053;-69
2022/08/02 02:00:15;;;;;;;16.75;6.18;;;11.80;99.90;;;;;;5020225;28;20108;-70
2022/08/02 02:02:47;;;;;;;12.55;6.10;;;11.80;99.90;;;;;;5045286;28;20047;-69
2022/08/02 02:05:14;;;;;;;;;;;11.80;99.90;;;;;;5039496;28;20124;-69
2022/08/02 02:07:42;;;;;;;9.38;5.38;;;11.80;99.90;;;;;;5038756;28;19963;-69
2022/08/02 02:10:15;;;;;;;12.35;5.22;;;11.80;99.90;;;;;;5052962;28;20036;-70
2022/08/02 02:12:43;;;;;;;9.73;5.28;;;11.70;99.90;;;;;;5041310;28;20049;-70
2022/08/02 02:15:11;;;;;;;10.10;5.18;;;11.70;99.90;;;;;;5053312;28;20075;-70
2022/08/02 02:17:41;;;;;;;9.00;5.18;;;11.70;99.90;;;;;;5028231;28;20080;-69
2022/08/02 02:20:11;;;;;;;13.38;5.20;;;11.60;99.90;;;;;;5040050;28;20072;-70
2022/08/02 02:22:37;;;;;;;8.68;5.25;;;11.60;99.90;;;;;;5039143;28;20048;-69
2022/08/02 02:25:03;;;;;;;14.38;6.15;;;11.60;99.90;;;;;;5044087;28;20032;-69
2022/08/02 02:27:30;;;;;;;8.63;5.15;;;11.50;99.90;;;;;;5056836;28;20041;-69
2022/08/02 02:29:56;;;;;;;13.93;6.10;;;11.50;99.90;;;;;;5059578;28;20123;-69
2022/08/02 02:32:23;;;;;;;11.10;5.43;;;11.50;99.90;;;;;;5037893;28;20072;-70
2022/08/02 02:34:50;;;;;;;11.32;6.13;;;11.40;99.90;;;;;;5042791;28;20045;-70
2022/08/02 02:37:22;;;;;;;9.43;5.30;;;11.30;99.90;;;;;;5055612;28;20039;-70
2022/08/02 02:39:53;;;;;;;6.78;5.15;;;11.30;99.90;;;;;;5036842;28;20041;-69
2022/08/02 02:42:23;;;;;;;9.38;5.70;;;11.20;99.90;;;;;;5040515;28;20127;-69
2022/08/02 02:44:51;;;;;;;13.82;6.03;;;11.10;99.90;;;;;;5039246;28;20036;-69
2022/08/02 02:47:18;;;;;;;13.85;5.35;;;11.10;99.90;;;;;;5030214;28;20522;-69
2022/08/02 02:49:48;;;;;;;10.60;5.05;;;11.10;99.90;;;;;;5015650;28;20114;-69
2022/08/02 02:52:16;;;;;;;10.27;5.43;;;11.10;99.90;;;;;;5027001;28;20128;-69
2022/08/02 02:54:45;;;;;;;9.70;5.95;;;11.00;99.90;;;;;;5045714;28;20592;-69
2022/08/02 02:57:12;;;;;;;9.13;5.68;;;11.00;99.90;;;;;;5048463;28;20112;-69
2022/08/02 02:59:38;;;;;;;9.52;5.50;;;11.00;99.90;;;;;;5028649;28;20045;-70
2022/08/02 03:02:05;;;;;;;6.85;5.18;;;11.00;99.90;;;;;;5027998;28;20036;-69
2022/08/02 03:04:32;;;;;;;11.88;5.65;;;10.90;99.90;;;;;;5044446;28;20054;-69
2022/08/02 03:06:59;;;;;;;7.90;5.65;;;10.90;99.90;;;;;;5045999;28;20051;-69
2022/08/02 03:09:26;;;;;;;8.77;5.57;;;11.00;99.90;;;;;;5009833;28;20445;-69
2022/08/02 03:11:56;;;;;;;9.65;6.05;;;11.00;99.90;;;;;;5043765;28;20095;-71
2022/08/02 03:14:22;;;;;;;10.13;5.90;;;11.00;99.90;;;;;;5028887;28;20041;-69
2022/08/02 03:16:50;;;;;;;11.40;6.15;;;11.00;99.90;;;;;;5027107;28;20084;-69
2022/08/02 03:19:17;;;;;;;8.70;5.65;;;11.10;99.90;;;;;;5028225;28;20045;-70
2022/08/02 03:21:45;;;;;;;8.02;5.90;;;11.10;99.90;;;;;;5041812;28;20044;-69
2022/08/02 03:24:11;;;;;;;9.80;6.00;;;11.10;99.90;;;;;;5026830;28;20037;-69
2022/08/02 03:26:37;;;;;;;8.38;6.30;;;11.10;99.90;;;;;;5045003;28;20072;-69
2022/08/02 03:29:03;;;;;;;10.55;5.70;;;11.10;99.90;;;;;;5028785;28;20555;-69
2022/08/02 03:31:29;;;;;;;17.15;6.40;;;11.10;99.90;;;;;;5024505;28;20033;-70
2022/08/02 03:33:55;;;;;;;8.55;5.75;;;11.10;99.90;;;;;;5045336;28;20067;-69
2022/08/02 03:36:24;;;;;;;11.52;6.38;;;11.10;99.90;;;;;;5027879;28;20478;-70
2022/08/02 03:38:52;;;;;;;9.07;6.03;;;11.10;99.90;;;;;;5046484;28;20091;-69
2022/08/02 03:41:19;;;;;;;9.50;6.43;;;11.10;99.90;;;;;;5036473;28;20262;-69
2022/08/02 03:43:47;;;;;;;13.25;6.47;;;11.10;99.90;;;;;;5049342;28;20041;-70
2022/08/02 03:46:16;;;;;;;12.20;6.57;;;11.10;99.90;;;;;;5037245;28;20091;-69
2022/08/02 03:48:42;;;;;;;11.15;5.30;;;11.00;99.90;;;;;;5055401;28;20128;-69
2022/08/02 03:51:09;;;;;;;11.23;6.60;;;11.00;99.90;;;;;;5035870;28;20040;-69
2022/08/02 03:53:35;;;;;;;10.95;6.60;;;11.00;99.90;;;;;;5028827;28;20548;-69
2022/08/02 03:56:02;;;;;;;10.15;5.93;;;11.00;99.90;;;;;;5046658;28;20543;-70
2022/08/02 03:58:28;;;;;;;12.52;6.50;;;11.00;99.90;;;;;;5028216;28;20040;-70
2022/08/02 04:00:56;;;;;;;13.50;6.53;;;11.00;99.90;;;;;;5025774;28;20485;-69
2022/08/02 04:03:21;;;;;;;12.70;6.50;;;11.00;99.90;;;;;;5043619;28;20033;-70
2022/08/02 04:05:48;;;;;;;11.45;6.25;;;11.00;99.90;;;;;;5025087;28;20037;-69
2022/08/02 04:08:14;;;;;;;11.13;6.72;;;11.00;99.90;;;;;;5047168;28;20039;-70
2022/08/02 04:13:30;;;;;;;15.68;7.10;;;11.10;99.90;;;;;;5044861;28;20510;-69
2022/08/02 04:16:22;;;;;;;15.52;7.72;;;11.10;99.90;;;;;;5044818;28;20485;-69
2022/08/02 04:18:56;;;;;;;14.40;6.68;;;11.20;99.90;;;;;;5031524;28;20128;-70
2022/08/02 04:21:27;;;;;;;14.68;7.28;;;11.20;99.90;;;;;;5024527;28;20048;-69
2022/08/02 04:23:54;;;;;;;11.15;6.65;;;11.20;99.90;;;;;;5028777;28;20041;-69
2022/08/02 04:26:21;;;;;;;12.73;7.18;;;11.30;99.90;;;;;;5010019;28;20068;-69
2022/08/02 04:28:47;;;;;;;11.10;6.97;;;11.30;99.90;;;;;;5045190;28;20076;-70
2022/08/02 04:31:16;;;;;;;13.30;7.22;;;11.40;99.90;;;;;;5045431;28;20138;-69
2022/08/02 04:33:42;;;;;;;18.63;7.10;;;11.40;99.90;;;;;;5026777;28;20545;-70
2022/08/02 04:36:09;;;;;;;12.63;6.50;;;11.50;99.90;;;;;;5027324;28;20130;-70
2022/08/02 04:38:35;;;;;;;12.20;7.07;;;11.60;99.90;;;;;;5027587;28;20179;-69
2022/08/02 04:41:01;;;;;;;14.15;7.15;;;11.70;99.90;;;;;;5025904;28;20362;-70
2022/08/02 04:43:27;;;;;;;12.88;7.07;;;11.80;99.90;;;;;;5026171;28;20041;-69
2022/08/02 04:45:53;;;;;;;11.60;6.90;;;11.80;99.90;;;;;;5045633;28;20057;-69
2022/08/02 04:48:21;;;;;;;15.95;6.70;;;11.90;99.90;;;;;;5048075;28;20514;-69
2022/08/02 04:50:47;;;;;;;11.82;7.05;;;12.00;99.90;;;;;;5029987;28;20108;-69
2022/08/02 04:53:12;;;;;;;17.20;7.25;;;12.00;99.90;;;;;;5015077;28;20341;-69
2022/08/02 04:55:38;;;;;;;16.73;7.20;;;12.10;99.90;;;;;;5028408;28;20130;-70
2022/08/02 04:58:04;;;;;;;14.35;6.80;;;12.20;99.90;;;;;;5049961;28;20094;-69
2022/08/02 05:00:31;;;;;;;16.75;7.22;;;12.20;99.90;;;;;;5030139;28;20051;-69
2022/08/02 05:02:57;;;;;;;11.20;6.50;;;12.20;99.90;;;;;;5047198;28;20167;-69
2022/08/02 05:05:24;;;;;;;13.55;7.07;;;12.30;99.90;;;;;;5027914;28;20099;-69
2022/08/02 05:07:50;;;;;;;10.98;6.15;;;12.30;99.90;;;;;;5047793;28;20119;-69
2022/08/02 05:10:16;;;;;;;16.52;6.75;;;12.30;99.90;;;;;;5047525;28;20178;-70
2022/08/02 05:12:42;;;;;;;12.90;6.78;;;12.40;99.90;;;;;;4997711;28;20052;-70
2022/08/02 05:15:10;;;;;;;17.00;6.65;;;12.40;99.90;;;;;;5050583;28;20037;-70
2022/08/02 05:17:35;;;;;;;18.40;7.22;;;12.40;99.90;;;;;;5048135;28;20044;-70
2022/08/02 05:20:01;;;;;;;10.15;5.82;;;12.50;99.90;;;;;;5014388;28;20090;-70
2022/08/02 05:22:27;;;;;;;13.27;7.25;;;12.50;99.90;;;;;;5028095;28;20041;-70
2022/08/02 05:24:53;;;;;;;10.55;6.80;;;12.60;99.90;;;;;;5015924;28;20052;-70
2022/08/02 05:27:18;;;;;;;12.80;7.35;;;12.60;99.90;;;;;;5029378;28;20059;-70
2022/08/02 05:29:44;;;;;;;13.60;6.80;;;12.70;99.90;;;;;;5014938;28;20402;-70
2022/08/02 05:32:10;;;;;;;14.10;7.18;;;12.70;99.90;;;;;;5029024;28;20055;-72
2022/08/02 05:34:35;;;;;;;10.43;6.70;;;12.80;99.90;;;;;;5028173;28;20130;-70
2022/08/02 05:37:01;;;;;;;13.77;6.70;;;12.90;99.90;;;;;;5028043;28;20041;-70
2022/08/02 05:39:27;;;;;;;14.07;6.53;;;12.90;99.90;;;;;;5049464;28;20041;-70
2022/08/02 05:41:53;;;;;;;10.52;6.05;;;13.00;99.90;;;;;;5015246;28;20041;-70
2022/08/02 05:44:18;;;;;;;11.23;6.53;;;13.00;99.90;;;;;;5029049;28;20102;-70
2022/08/02 05:46:44;;;;;;;10.50;6.50;;;13.10;99.90;;;;;;5031872;28;20061;-70
2022/08/02 05:49:10;;;;;;;12.23;6.22;;;13.20;99.90;;;;;;5042885;28;20037;-70
2022/08/02 05:51:44;;;;;;;12.82;6.53;;;13.30;99.90;;;;;;5037723;28;20048;-70
2022/08/02 05:54:17;;;;;;;11.32;6.40;;;13.30;99.90;;;;;;5014222;28;20065;-71
2022/08/02 05:57:03;;;;;;;12.82;6.35;;;13.40;99.90;;;;;;5051685;28;21551;-71
2022/08/02 05:59:34;;;;;;;11.02;6.18;;;13.50;99.90;;;;;;5037939;28;20029;-71
2022/08/02 06:02:15;;;;;;;11.50;6.75;;;13.60;99.90;;;;;;5037625;28;20045;-70
2022/08/02 06:05:10;;;;;;;12.60;5.90;;;13.70;99.90;;;;;;5018845;28;20045;-71
2022/08/02 06:07:36;;;;;;;16.42;6.35;;;13.80;99.90;;;;;;5029859;28;20056;-70
2022/08/02 06:10:07;;;;;;;14.18;6.80;;;13.90;99.90;;;;;;5044847;28;20041;-70
2022/08/02 06:12:47;;;;;;;12.05;6.38;;;14.00;99.90;;;;;;5011928;28;20049;-70
2022/08/02 06:15:14;;;;;;;14.50;6.20;;;14.10;99.90;;;;;;5043380;28;20844;-70
2022/08/02 06:17:40;;;;;;;13.10;7.15;;;14.20;99.90;;;;;;5041154;28;20482;-70
2022/08/02 06:20:07;;;;;;;12.85;6.38;;;14.30;99.90;;;;;;5033081;28;20112;-70
2022/08/02 06:22:34;;;;;;;10.52;6.22;;;14.40;99.90;;;;;;5039189;28;20131;-71
2022/08/02 06:25:01;;;;;;;12.77;6.50;;;14.50;99.90;;;;;;5019063;28;20053;-71
2022/08/02 06:27:28;;;;;;;14.07;6.13;;;14.60;99.90;;;;;;5031151;28;20037;-70
2022/08/02 06:29:55;;;;;;;14.55;6.25;;;14.70;99.90;;;;;;5021203;28;20048;-71
2022/08/02 06:32:21;;;;;;;13.02;6.75;;;14.80;99.90;;;;;;5029737;28;20049;-70
2022/08/02 06:34:47;;;;;;;12.48;5.97;;;14.90;99.90;;;;;;5012749;28;20122;-71
2022/08/02 06:37:27;;;;;;;9.57;6.13;;;15.00;99.90;;;;;;5030109;28;20490;-71
2022/08/02 06:40:29;;;;;;;11.38;5.95;;;15.10;99.90;;;;;;5028846;28;20064;-71
2022/08/02 06:43:09;;;;;;;13.32;5.93;;;15.20;99.90;;;;;;5030530;28;20109;-71
2022/08/02 06:45:35;;;;;;;19.30;6.97;;;15.30;99.90;;;;;;5029307;28;20049;-70
2022/08/02 06:48:02;;;;;;;9.40;4.95;;;15.40;99.90;;;;;;5029718;28;20060;-71
2022/08/02 06:50:29;;;;;;;9.13;5.38;;;15.50;99.90;;;;;;4995579;28;20041;-71
2022/08/02 06:52:55;;;;;;;10.90;5.90;;;15.60;99.90;;;;;;5016533;28;20042;-71
2022/08/02 06:55:21;;;;;;;9.02;5.63;;;15.70;99.90;;;;;;5028709;28;20033;-71
2022/08/02 06:57:46;;;;;;;10.15;5.57;;;15.80;99.90;;;;;;5029753;28;20048;-71
2022/08/02 07:00:13;;;;;;;7.28;5.30;;;16.00;99.90;;;;;;5007703;28;20652;-71
2022/08/02 07:02:38;;;;;;;8.60;5.10;;;16.10;99.90;;;;;;5035227;28;20179;-72
2022/08/02 07:05:06;;;;;;;11.38;5.20;;;16.20;99.90;;;;;;5044976;28;20120;-71
2022/08/02 07:07:32;;;;;;;11.80;5.00;;;16.40;99.90;;;;;;5011066;28;20037;-71
2022/08/02 07:09:58;;;;;;;12.20;4.28;;;16.40;99.90;;;;;;5026606;28;20171;-71
2022/08/02 07:12:24;;;;;;;8.80;4.68;;;16.60;99.90;;;;;;5027055;28;20359;-71
2022/08/02 07:14:51;;;;;;;8.27;5.00;;;16.70;99.90;;;;;;5026913;28;20037;-71
2022/08/02 07:17:16;;;;;;;9.25;4.68;;;16.80;99.90;;;;;;4995389;28;20033;-71
2022/08/02 07:19:42;;;;;;;9.85;4.75;;;17.00;99.90;;;;;;5040027;28;20042;-71
2022/08/02 07:22:08;;;;;;;8.70;4.18;;;17.00;99.90;;;;;;5024997;28;20034;-71
2022/08/02 07:24:34;;;;;;;7.82;4.55;;;17.10;99.90;;;;;;5011028;28;20053;-72
2022/08/02 07:26:59;;;;;;;8.55;4.53;;;17.20;99.90;;;;;;5007924;28;20037;-71
2022/08/02 07:29:26;;;;;;;8.60;4.13;;;17.30;99.90;;;;;;5013901;28;20617;-72
2022/08/02 07:31:51;;;;;;;12.25;4.03;;;17.50;99.90;;;;;;5009732;28;20037;-72
2022/08/02 07:34:17;;;;;;;8.30;3.90;;;17.80;99.90;;;;;;4996038;28;20042;-71
2022/08/02 07:36:43;;;;;;;5.93;3.35;;;18.10;99.90;;;;;;5029595;28;20041;-78
2022/08/02 07:39:08;;;;;;;7.85;3.60;;;18.40;99.90;;;;;;5045896;28;20506;-75
2022/08/02 07:41:35;;;;;;;5.97;2.80;;;18.50;99.90;;;;;;4994732;28;20388;-77
2022/08/02 07:44:01;;;;;;;6.78;3.05;;;18.60;99.90;;;;;;5024387;28;20497;-78
2022/08/02 07:46:27;;;;;;;5.68;2.50;;;18.60;99.90;;;;;;5012724;28;20054;-78
2022/08/02 07:48:54;;;;;;;5.90;2.90;;;18.60;99.90;;;;;;4994297;28;20046;-78
2022/08/02 07:51:20;;;;;;;6.82;2.45;;;18.50;99.90;;;;;;4996212;28;20127;-78
2022/08/02 07:53:46;;;;;;;5.40;2.55;;;18.60;99.90;;;;;;4988173;28;20042;-77
2022/08/02 07:56:12;;;;;;;5.90;2.90;;;18.70;99.90;;;;;;4992169;28;20038;-77
2022/08/02 07:58:39;;;;;;;5.38;2.63;;;18.90;99.90;;;;;;5030471;28;20034;-77
2022/08/02 08:01:05;;;;;;;6.07;2.55;;;19.10;99.90;;;;;;4991778;28;20140;-77
2022/08/02 08:03:31;;;;;;;6.50;2.55;;;19.30;99.90;;;;;;5012382;28;20113;-77
2022/08/02 08:05:57;;;;;;;5.28;2.47;;;19.40;99.90;;;;;;5009157;28;20041;-77
2022/08/02 08:08:22;;;;;;;4.68;2.45;;;19.50;99.90;;;;;;5012189;28;20041;-77
2022/08/02 08:10:48;;;;;;;3.22;1.90;;;19.60;99.90;;;;;;4978858;28;20041;-76
2022/08/02 08:13:15;;;;;;;4.30;1.92;;;19.80;99.90;;;;;;5012176;28;20042;-77
2022/08/02 08:15:40;;;;;;;6.05;2.35;;;19.90;99.90;;;;;;5016720;28;20044;-77
2022/08/02 08:18:06;;;;;;;4.80;2.08;;;20.00;99.90;;;;;;4990939;28;20258;-77
2022/08/02 08:20:32;;;;;;;6.15;2.40;;;20.10;99.90;;;;;;5010396;28;20310;-77
2022/08/02 08:22:58;;;;;;;3.55;2.00;;;20.20;99.90;;;;;;5015258;28;20037;-76
2022/08/02 08:25:24;;;;;;;6.50;2.20;;;20.30;99.90;;;;;;5015385;28;20100;-76
2022/08/02 08:27:51;;;;;;;4.15;1.92;;;20.50;99.90;;;;;;5014239;28;20049;-76
2022/08/02 08:30:18;;;;;;;3.35;2.00;;;20.60;99.90;;;;;;5048182;28;20120;-76
2022/08/02 08:32:44;;;;;;;4.95;2.42;;;20.70;99.90;;;;;;5012594;28;20521;-76
2022/08/02 08:35:11;;;;;;;6.55;2.05;;;20.70;99.90;;;;;;5014873;28;20048;-76
2022/08/02 08:37:37;;;;;;;3.72;1.75;;;20.80;99.90;;;;;;5014912;28;20049;-76
2022/08/02 08:40:08;;;;;;;3.88;1.95;;;20.90;99.90;;;;;;5048103;28;20418;-76
2022/08/02 08:42:35;;;;;;;5.03;2.45;;;21.00;99.90;;;;;;5013793;28;20156;-76
2022/08/02 08:45:01;;;;;;;7.38;1.90;;;21.10;99.90;;;;;;5016746;28;20103;-77
2022/08/02 08:47:36;;;;;;;4.95;2.30;;;21.30;99.90;;;;;;5051287;28;20632;-77
2022/08/02 08:50:07;;;;;;;7.32;2.25;;;21.50;99.90;;;;;;5018176;28;20131;-77
2022/08/02 08:52:40;;;;;;;4.40;2.25;;;21.60;99.90;;;;;;5043968;28;20079;-77
2022/08/02 08:55:07;;;;;;;;;;;21.70;99.90;;;;;;5060550;28;20047;-76
2022/08/02 08:57:35;;;;;;;6.47;2.30;;;21.80;99.90;;;;;;5040052;28;19966;-77
2022/08/02 09:00:01;;;;;;;3.60;1.90;;;21.80;99.90;;;;;;5025951;28;20041;-73
2022/08/02 09:02:27;;;;;;;5.65;1.88;;;21.80;99.90;;;;;;5018268;28;20041;-72
2022/08/02 09:04:53;;;;;;;3.63;2.50;;;21.90;99.90;;;;;;4996184;28;20518;-72
2022/08/02 09:07:19;;;;;;;4.22;2.30;;;22.00;99.90;;;;;;5006916;28;20136;-72
2022/08/02 09:09:44;;;;;;;3.30;2.58;;;22.10;99.90;;;;;;5020305;28;20070;-72
2022/08/02 09:12:21;;;;;;;5.30;2.17;;;22.20;99.90;;;;;;5053087;28;20040;-72
2022/08/02 09:14:46;;;;;;;2.60;1.75;;;22.40;99.70;;;;;;5025892;28;20055;-73
2022/08/02 09:17:12;;;;;;;5.68;2.53;;;22.40;99.90;;;;;;5038131;28;20045;-73
2022/08/02 09:19:39;;;;;;;7.18;2.20;;;22.50;99.90;;;;;;5044396;28;20490;-73
2022/08/02 09:22:10;;;;;;;4.25;2.00;;;22.60;99.90;;;;;;5017683;28;20048;-73
2022/08/02 09:24:42;;;;;;;4.07;2.33;;;22.70;99.90;;;;;;5023237;28;20110;-73
2022/08/02 09:27:13;;;;;;;6.13;2.20;;;22.80;99.20;;;;;;5034355;28;20083;-73
2022/08/02 09:29:40;;;;;;;3.83;2.15;;;22.90;98.50;;;;;;5062198;28;20048;-73
2022/08/02 09:32:07;;;;;;;5.18;2.25;;;23.10;99.70;;;;;;5036153;28;20074;-73
2022/08/02 09:34:52;;;;;;;3.45;2.45;;;23.20;99.30;;;;;;5034640;28;20390;-73
2022/08/02 09:37:26;;;;;;;3.63;2.38;;;23.40;98.50;;;;;;5018549;28;20039;-73
2022/08/02 09:39:52;;;;;;;4.70;2.22;;;23.60;98.10;;;;;;5024546;28;20041;-73
2022/08/02 09:42:18;;;;;;;3.60;2.22;;;23.70;98.70;;;;;;5023779;28;20135;-73
2022/08/02 09:44:58;;;;;;;6.05;2.10;;;23.90;98.60;;;;;;5034451;28;20120;-72
2022/08/02 09:47:25;;;;;;;6.30;2.15;;;24.00;97.30;;;;;;5037009;28;20127;-73
2022/08/02 09:49:54;;;;;;;3.78;2.08;;;24.10;97.70;;;;;;5018069;28;20037;-73
2022/08/02 09:52:28;;;;;;;4.78;1.98;;;24.20;96.90;;;;;;5034365;28;20468;-73
2022/08/02 09:54:53;;;;;;;5.85;2.15;;;24.40;96.40;;;;;;5017355;28;20033;-73
2022/08/02 09:57:27;;;;;;;4.20;2.08;;;24.50;97.10;;;;;;5017653;28;20041;-73
2022/08/02 09:59:54;;;;;;;4.85;2.28;;;24.60;96.50;;;;;;5001790;28;20094;-73
2022/08/02 10:02:20;;;;;;;4.50;2.05;;;24.70;97.00;;;;;;5035883;28;20045;-73
2022/08/02 10:04:46;;;;;;;6.03;2.10;;;24.70;96.80;;;;;;5017310;28;20143;-73
2022/08/02 10:07:12;;;;;;;3.45;2.13;;;24.70;96.70;;;;;;5021814;28;20044;-73
2022/08/02 10:09:38;;;;;;;4.07;1.85;;;24.60;96.00;;;;;;5019234;28;20477;-73
2022/08/02 10:12:05;;;;;;;4.20;2.83;;;24.60;95.80;;;;;;4996083;28;20486;-73
2022/08/02 10:14:34;;;;;;;4.95;2.10;;;24.70;95.90;;;;;;5013539;28;20090;-74
2022/08/02 10:17:00;;;;;;;4.30;2.30;;;24.70;95.40;;;;;;5022744;28;20490;-73
2022/08/02 10:19:26;;;;;;;4.93;2.30;;;24.90;95.20;;;;;;5019804;28;20478;-73
2022/08/02 10:21:57;;;;;;;5.32;2.30;;;25.00;95.90;;;;;;5036724;28;20303;-74
2022/08/02 10:24:26;;;;;;;5.07;2.10;;;25.00;95.30;;;;;;5035155;28;20074;-73
2022/08/02 10:26:53;;;;;;;7.20;2.65;;;25.10;95.40;;;;;;5033812;28;20124;-73
2022/08/02 10:29:25;;;;;;;6.97;2.53;;;25.10;95.40;;;;;;5033141;28;20557;-74
2022/08/02 10:31:59;;;;;;;3.78;2.75;;;25.10;95.30;;;;;;5038956;28;20563;-75
2022/08/02 10:34:45;;;;;;;3.25;2.33;;;25.00;94.80;;;;;;5040098;28;20051;-74
2022/08/02 10:37:13;;;;;;;4.70;2.78;;;25.10;94.40;;;;;;5033122;28;20033;-73
2022/08/02 10:39:43;;;;;;;3.72;2.67;;;25.00;95.30;;;;;;5000425;28;20120;-73
2022/08/02 10:42:09;;;;;;;6.80;2.80;;;25.00;95.20;;;;;;5037043;28;20033;-73
2022/08/02 10:44:36;;;;;;;7.15;2.70;;;25.10;95.40;;;;;;5021030;28;20072;-74
2022/08/02 10:47:23;;;;;;;7.97;2.30;;;25.20;95.80;;;;;;5009757;28;20104;-73
2022/08/02 10:49:56;;;;;;;6.72;2.80;;;25.50;96.40;;;;;;5022814;28;20069;-73
2022/08/02 10:52:23;;;;;;;6.80;2.83;;;25.70;96.80;;;;;;5046436;28;20387;-73
2022/08/02 10:55:01;;;;;;;4.10;2.75;;;25.80;96.30;;;;;;5051105;28;20131;-73
2022/08/02 10:57:35;;;;;;;5.50;3.17;;;26.00;95.80;;;;;;5029973;28;20045;-73
2022/08/02 11:00:11;;;;;;;7.07;3.25;;;26.20;95.80;;;;;;5011033;28;20046;-73
2022/08/02 11:02:46;;;;;;;5.30;2.90;;;26.30;96.00;;;;;;5044064;28;20110;-73
2022/08/02 11:05:30;;;;;;;4.30;3.00;;;26.40;96.00;;;;;;5028554;28;20585;-73
2022/08/02 11:08:16;;;;;;;5.60;3.50;;;26.50;96.00;;;;;;5028945;28;20046;-72
2022/08/02 11:10:41;;;;;;;6.63;3.40;;;26.50;94.80;;;;;;5015784;28;20072;-74
2022/08/02 11:13:13;;;;;;;6.78;3.30;;;26.50;95.10;;;;;;5012024;28;20411;-73
2022/08/02 11:16:03;;;;;;;7.88;3.72;;;26.40;94.20;;;;;;5012344;28;20069;-73
2022/08/02 11:18:50;;;;;;;8.77;3.53;;;26.40;93.90;;;;;;5029340;28;20404;-74
2022/08/02 11:21:27;;;;;;;9.23;3.47;;;26.50;94.30;;;;;;5028832;28;20449;-70
2022/08/02 11:23:53;;;;;;;9.95;3.20;;;26.50;94.20;;;;;;5026024;28;20038;-72
2022/08/02 11:26:31;;;;;;;5.47;3.47;;;26.50;93.90;;;;;;4992195;28;20123;-72
2022/08/02 11:29:01;;;;;;;5.03;3.45;;;26.50;93.20;;;;;;5025319;28;20104;-72
2022/08/02 11:31:28;;;;;;;6.47;3.35;;;26.50;93.90;;;;;;5023599;28;20084;-72
2022/08/02 11:33:54;;;;;;;5.18;2.97;;;26.50;93.90;;;;;;5009491;28;20030;-72
2022/08/02 11:36:20;;;;;;;8.18;3.50;;;26.60;94.30;;;;;;5021633;28;20050;-72
2022/08/02 11:38:46;;;;;;;4.38;2.67;;;26.70;94.70;;;;;;4995431;28;20041;-72
2022/08/02 11:41:21;;;;;;;5.70;3.13;;;26.90;94.70;;;;;;5012998;28;20505;-71
2022/08/02 11:43:54;;;;;;;6.43;3.08;;;27.10;93.60;;;;;;5045610;28;20065;-72
2022/08/02 11:46:19;;;;;;;6.35;3.78;;;27.00;93.30;;;;;;5048347;28;20056;-72
2022/08/02 11:48:45;;;;;;;6.32;3.10;;;27.00;92.70;;;;;;5011760;28;20433;-71
2022/08/02 11:51:16;;;;;;;4.68;3.00;;;26.70;92.80;;;;;;5025454;28;20054;-71
2022/08/02 11:53:53;;;;;;;14.73;3.40;;;26.80;93.00;;;;;;5020222;28;20041;-72
2022/08/02 11:56:27;;;;;;;4.55;2.90;;;26.60;92.90;;;;;;5017732;28;20811;-71
2022/08/02 11:59:09;;;;;;;4.80;2.67;;;26.60;93.70;;;;;;5028485;28;20069;-71
2022/08/02 12:01:38;;;;;;;3.28;2.67;;;26.60;92.30;;;;;;5012576;28;20033;-71
2022/08/02 12:04:06;;;;;;;5.78;2.90;;;26.50;92.70;;;;;;5029220;28;20041;-72
2022/08/02 12:06:33;;;;;;;6.63;3.03;;;26.60;93.10;;;;;;5044332;28;20429;-71
2022/08/02 12:09:09;;;;;;;7.15;2.78;;;26.60;92.90;;;;;;5011975;28;20120;-71
2022/08/02 12:11:37;;;;;;;3.10;2.30;;;26.70;93.00;;;;;;5028221;28;20038;-72
2022/08/02 12:14:04;;;;;;;5.00;2.90;;;26.80;93.10;;;;;;5045355;28;20509;-72
2022/08/02 12:19:28;;;;;;;3.25;2.40;;;26.80;92.30;;;;;;5028263;28;20112;-71
2022/08/02 12:22:14;;;;;;;5.78;2.35;;;26.70;92.30;;;;;;5009331;28;20554;-71
2022/08/02 12:24:43;;;;;;;4.45;3.00;;;26.70;91.60;;;;;;5012056;28;20060;-72
2022/08/02 12:27:09;;;;;;;3.90;2.45;;;26.60;91.80;;;;;;5011081;28;20033;-72
2022/08/02 12:29:41;;;;;;;4.82;2.55;;;26.80;92.20;;;;;;5028322;28;20633;-72
2022/08/02 12:32:07;;;;;;;;;;;26.80;92.40;;;;;;5045167;28;20034;-73
2022/08/02 12:34:34;;;;;;;5.32;2.63;;;26.80;92.40;;;;;;5012263;28;20313;-72
2022/08/02 12:37:08;;;;;;;3.45;2.05;;;26.80;92.20;;;;;;5044715;28;20322;-72
2022/08/02 12:39:43;;;;;;;2.78;1.80;;;26.80;91.90;;;;;;5011779;28;20034;-73
2022/08/02 12:42:12;;;;;;;4.60;1.90;;;26.80;91.50;;;;;;5027566;28;20147;-72
2022/08/02 12:44:59;;;;;;;2.78;1.80;;;26.80;91.60;;;;;;5044823;28;20110;-72
2022/08/02 12:47:26;;;;;;;2.60;2.03;;;26.70;90.90;;;;;;5033467;28;20045;-71
2022/08/02 12:50:12;;;;;;;3.08;2.10;;;26.60;90.90;;;;;;5031785;28;20048;-71
2022/08/02 12:52:37;;;;;;;3.97;2.47;;;26.60;90.60;;;;;;5030970;28;20109;-72
2022/08/02 12:55:22;;;;;;;5.47;2.25;;;26.60;91.20;;;;;;5036823;28;20468;-71
2022/08/02 12:58:00;;;;;;;3.97;2.55;;;26.80;91.30;;;;;;5033331;28;20411;-72
2022/08/02 13:00:32;;;;;;;3.97;2.40;;;27.00;92.10;;;;;;5015134;28;20049;-71